sensor_id;sensor_type;location;lat;lon;timestamp;temperature;humidity
43320;DHT22;28914;48.722;9.332;2023-01-09T00:02:11;11.00;90.80
43320;DHT22;28914;48.722;9.332;2023-01-09T00:07:30;11.00;90.80
43320;DHT22;28914;48.722;9.332;2023-01-09T00:12:50;11.00;90.80
43320;DHT22;28914;48.722;9.332;2023-01-09T00:18:09;11.00;90.80
43320;DHT22;28914;48.722;9.332;2023-01-09T00:23:28;11.00;90.80
43320;DHT22;28914;48.722;9.332;2023-01-09T00:28:49;11.00;90.80
43320;DHT22;28914;48.722;9.332;2023-01-09T00:34:08;11.00;90.80
43320;DHT22;28914;48.722;9.332;2023-01-09T00:39:28;11.00;90.80
43320;DHT22;28914;48.722;9.332;2023-01-09T00:44:54;11.00;90.80
43320;DHT22;28914;48.722;9.332;2023-01-09T00:50:19;11.00;90.80
43320;DHT22;28914;48.722;9.332;2023-01-09T00:55:40;11.10;90.70
43320;DHT22;28914;48.722;9.332;2023-01-09T01:00:59;11.00;90.70
43320;DHT22;28914;48.722;9.332;2023-01-09T01:06:19;11.00;90.70
43320;DHT22;28914;48.722;9.332;2023-01-09T01:11:57;11.00;90.70
43320;DHT22;28914;48.722;9.332;2023-01-09T01:17:16;11.00;90.80
43320;DHT22;28914;48.722;9.332;2023-01-09T01:22:35;11.00;90.80
43320;DHT22;28914;48.722;9.332;2023-01-09T01:27:54;11.00;90.80
43320;DHT22;28914;48.722;9.332;2023-01-09T01:33:14;11.00;90.80
43320;DHT22;28914;48.722;9.332;2023-01-09T01:38:34;10.90;91.20
43320;DHT22;28914;48.722;9.332;2023-01-09T01:50:18;11.00;91.10
43320;DHT22;28914;48.722;9.332;2023-01-09T02:01:34;10.90;91.10
43320;DHT22;28914;48.722;9.332;2023-01-09T02:06:56;10.90;91.10
43320;DHT22;28914;48.722;9.332;2023-01-09T02:12:22;10.90;91.00
43320;DHT22;28914;48.722;9.332;2023-01-09T02:23:26;10.90;90.90
43320;DHT22;28914;48.722;9.332;2023-01-09T02:29:13;10.90;90.90
43320;DHT22;28914;48.722;9.332;2023-01-09T02:34:47;10.80;91.10
43320;DHT22;28914;48.722;9.332;2023-01-09T02:40:24;10.70;91.00
43320;DHT22;28914;48.722;9.332;2023-01-09T02:45:44;10.70;91.10
43320;DHT22;28914;48.722;9.332;2023-01-09T02:51:13;10.70;91.10
43320;DHT22;28914;48.722;9.332;2023-01-09T02:56:51;10.70;91.10
43320;DHT22;28914;48.722;9.332;2023-01-09T03:02:27;10.70;91.20
43320;DHT22;28914;48.722;9.332;2023-01-09T03:08:02;10.70;91.20
43320;DHT22;28914;48.722;9.332;2023-01-09T03:13:24;10.70;91.40
43320;DHT22;28914;48.722;9.332;2023-01-09T03:18:46;10.80;91.50
43320;DHT22;28914;48.722;9.332;2023-01-09T03:24:06;10.90;91.50
43320;DHT22;28914;48.722;9.332;2023-01-09T03:29:25;10.90;91.50
43320;DHT22;28914;48.722;9.332;2023-01-09T03:34:45;11.00;91.40
43320;DHT22;28914;48.722;9.332;2023-01-09T03:40:04;11.10;91.20
43320;DHT22;28914;48.722;9.332;2023-01-09T03:45:24;11.10;91.10
43320;DHT22;28914;48.722;9.332;2023-01-09T03:50:43;11.10;90.90
43320;DHT22;28914;48.722;9.332;2023-01-09T03:56:05;11.20;90.80
43320;DHT22;28914;48.722;9.332;2023-01-09T04:01:24;11.20;90.80
43320;DHT22;28914;48.722;9.332;2023-01-09T04:06:43;11.10;90.70
43320;DHT22;28914;48.722;9.332;2023-01-09T04:12:03;11.10;90.70
43320;DHT22;28914;48.722;9.332;2023-01-09T04:17:22;11.10;90.70
43320;DHT22;28914;48.722;9.332;2023-01-09T04:22:41;11.00;90.80
43320;DHT22;28914;48.722;9.332;2023-01-09T04:28:00;11.00;90.80
43320;DHT22;28914;48.722;9.332;2023-01-09T04:33:20;11.00;90.90
43320;DHT22;28914;48.722;9.332;2023-01-09T04:38:39;11.00;91.00
43320;DHT22;28914;48.722;9.332;2023-01-09T04:43:58;11.00;91.00
43320;DHT22;28914;48.722;9.332;2023-01-09T04:49:18;10.90;90.90
43320;DHT22;28914;48.722;9.332;2023-01-09T04:54:37;10.90;90.90
43320;DHT22;28914;48.722;9.332;2023-01-09T04:59:57;10.90;90.40
43320;DHT22;28914;48.722;9.332;2023-01-09T05:05:16;10.80;89.90
43320;DHT22;28914;48.722;9.332;2023-01-09T05:10:36;10.80;89.50
43320;DHT22;28914;48.722;9.332;2023-01-09T05:15:55;10.70;88.50
43320;DHT22;28914;48.722;9.332;2023-01-09T05:21:14;10.60;88.30
43320;DHT22;28914;48.722;9.332;2023-01-09T05:26:33;10.50;89.30
43320;DHT22;28914;48.722;9.332;2023-01-09T05:31:53;10.50;88.60
43320;DHT22;28914;48.722;9.332;2023-01-09T05:37:12;10.40;88.30
43320;DHT22;28914;48.722;9.332;2023-01-09T05:42:31;10.30;88.30
43320;DHT22;28914;48.722;9.332;2023-01-09T05:47:50;10.20;87.70
43320;DHT22;28914;48.722;9.332;2023-01-09T05:53:09;10.20;87.60
43320;DHT22;28914;48.722;9.332;2023-01-09T05:58:28;10.00;87.30
43320;DHT22;28914;48.722;9.332;2023-01-09T06:03:47;9.90;86.90
43320;DHT22;28914;48.722;9.332;2023-01-09T06:09:07;9.70;86.80
43320;DHT22;28914;48.722;9.332;2023-01-09T06:14:26;9.60;86.60
43320;DHT22;28914;48.722;9.332;2023-01-09T06:19:45;9.50;86.80
43320;DHT22;28914;48.722;9.332;2023-01-09T06:25:05;9.30;86.90
43320;DHT22;28914;48.722;9.332;2023-01-09T06:30:24;9.20;87.20
43320;DHT22;28914;48.722;9.332;2023-01-09T06:35:43;9.10;87.20
43320;DHT22;28914;48.722;9.332;2023-01-09T06:41:02;8.90;87.20
43320;DHT22;28914;48.722;9.332;2023-01-09T06:46:21;8.80;87.20
43320;DHT22;28914;48.722;9.332;2023-01-09T06:51:41;8.60;87.30
43320;DHT22;28914;48.722;9.332;2023-01-09T06:57:00;8.40;87.40
43320;DHT22;28914;48.722;9.332;2023-01-09T07:02:20;8.20;87.30
43320;DHT22;28914;48.722;9.332;2023-01-09T07:07:40;8.00;87.60
43320;DHT22;28914;48.722;9.332;2023-01-09T07:12:59;7.90;87.90
43320;DHT22;28914;48.722;9.332;2023-01-09T07:18:19;7.70;88.20
43320;DHT22;28914;48.722;9.332;2023-01-09T07:23:38;7.60;89.10
43320;DHT22;28914;48.722;9.332;2023-01-09T07:28:57;7.60;89.80
43320;DHT22;28914;48.722;9.332;2023-01-09T07:34:17;7.60;90.20
43320;DHT22;28914;48.722;9.332;2023-01-09T07:39:36;7.60;90.40
43320;DHT22;28914;48.722;9.332;2023-01-09T07:44:55;7.70;90.50
43320;DHT22;28914;48.722;9.332;2023-01-09T07:50:15;7.80;90.60
43320;DHT22;28914;48.722;9.332;2023-01-09T07:55:34;7.90;90.70
43320;DHT22;28914;48.722;9.332;2023-01-09T08:00:53;8.00;90.80
43320;DHT22;28914;48.722;9.332;2023-01-09T08:06:12;8.10;90.80
43320;DHT22;28914;48.722;9.332;2023-01-09T08:11:31;8.20;90.60
43320;DHT22;28914;48.722;9.332;2023-01-09T08:16:51;8.20;90.30
43320;DHT22;28914;48.722;9.332;2023-01-09T08:22:10;8.30;90.30
43320;DHT22;28914;48.722;9.332;2023-01-09T08:27:28;8.30;90.20
43320;DHT22;28914;48.722;9.332;2023-01-09T08:32:52;8.30;90.20
43320;DHT22;28914;48.722;9.332;2023-01-09T08:38:12;8.40;90.10
43320;DHT22;28914;48.722;9.332;2023-01-09T08:43:31;8.40;90.10
43320;DHT22;28914;48.722;9.332;2023-01-09T08:49:09;8.40;90.10
43320;DHT22;28914;48.722;9.332;2023-01-09T08:54:29;8.40;90.10
43320;DHT22;28914;48.722;9.332;2023-01-09T08:59:48;8.50;90.10
43320;DHT22;28914;48.722;9.332;2023-01-09T09:05:07;8.50;90.00
43320;DHT22;28914;48.722;9.332;2023-01-09T09:10:28;8.60;90.10
43320;DHT22;28914;48.722;9.332;2023-01-09T09:15:47;8.70;90.10
43320;DHT22;28914;48.722;9.332;2023-01-09T09:21:06;8.80;89.70
43320;DHT22;28914;48.722;9.332;2023-01-09T09:26:25;9.00;89.90
43320;DHT22;28914;48.722;9.332;2023-01-09T09:31:45;9.10;89.00
43320;DHT22;28914;48.722;9.332;2023-01-09T09:37:04;9.30;89.20
43320;DHT22;28914;48.722;9.332;2023-01-09T09:42:34;9.50;88.80
43320;DHT22;28914;48.722;9.332;2023-01-09T09:48:35;9.60;88.80
43320;DHT22;28914;48.722;9.332;2023-01-09T09:59:32;10.10;87.90
43320;DHT22;28914;48.722;9.332;2023-01-09T10:05:04;10.30;87.60
43320;DHT22;28914;48.722;9.332;2023-01-09T10:10:38;11.30;91.90
43320;DHT22;28914;48.722;9.332;2023-01-09T10:22:10;16.10;90.50
43320;DHT22;28914;48.722;9.332;2023-01-09T10:38:50;23.00;68.40
43320;DHT22;28914;48.722;9.332;2023-01-09T10:44:20;24.20;64.00
43320;DHT22;28914;48.722;9.332;2023-01-09T10:49:40;24.00;58.50
43320;DHT22;28914;48.722;9.332;2023-01-09T10:55:33;22.90;54.00
43320;DHT22;28914;48.722;9.332;2023-01-09T11:00:53;21.30;55.40
43320;DHT22;28914;48.722;9.332;2023-01-09T11:06:21;19.90;56.00
43320;DHT22;28914;48.722;9.332;2023-01-09T11:11:41;18.70;58.10
43320;DHT22;28914;48.722;9.332;2023-01-09T11:17:02;17.60;59.50
43320;DHT22;28914;48.722;9.332;2023-01-09T11:22:21;16.70;60.30
43320;DHT22;28914;48.722;9.332;2023-01-09T11:27:41;15.90;62.20
43320;DHT22;28914;48.722;9.332;2023-01-09T11:33:11;15.30;64.10
43320;DHT22;28914;48.722;9.332;2023-01-09T11:38:44;14.90;64.30
43320;DHT22;28914;48.722;9.332;2023-01-09T11:44:04;14.50;65.30
43320;DHT22;28914;48.722;9.332;2023-01-09T11:49:26;14.20;66.70
43320;DHT22;28914;48.722;9.332;2023-01-09T11:54:50;14.20;67.10
43320;DHT22;28914;48.722;9.332;2023-01-09T12:00:27;14.30;68.00
43320;DHT22;28914;48.722;9.332;2023-01-09T12:11:58;14.30;65.70
43320;DHT22;28914;48.722;9.332;2023-01-09T12:23:11;14.10;66.20
43320;DHT22;28914;48.722;9.332;2023-01-09T12:34:53;13.80;65.20
43320;DHT22;28914;48.722;9.332;2023-01-09T12:51:44;13.40;67.70
43320;DHT22;28914;48.722;9.332;2023-01-09T12:57:18;13.30;67.60
43320;DHT22;28914;48.722;9.332;2023-01-09T13:02:54;13.20;68.90
43320;DHT22;28914;48.722;9.332;2023-01-09T13:08:29;13.10;68.80
43320;DHT22;28914;48.722;9.332;2023-01-09T13:14:03;13.10;69.00
43320;DHT22;28914;48.722;9.332;2023-01-09T13:19:25;13.10;69.40
43320;DHT22;28914;48.722;9.332;2023-01-09T13:25:05;13.00;70.00
43320;DHT22;28914;48.722;9.332;2023-01-09T13:30:38;12.90;70.70
43320;DHT22;28914;48.722;9.332;2023-01-09T13:36:01;12.80;71.40
43320;DHT22;28914;48.722;9.332;2023-01-09T13:41:21;12.60;72.20
43320;DHT22;28914;48.722;9.332;2023-01-09T13:47:00;12.30;73.10
43320;DHT22;28914;48.722;9.332;2023-01-09T14:03:33;12.00;75.70
43320;DHT22;28914;48.722;9.332;2023-01-09T14:09:10;12.00;75.70
43320;DHT22;28914;48.722;9.332;2023-01-09T14:14:31;12.00;76.00
43320;DHT22;28914;48.722;9.332;2023-01-09T14:19:57;11.90;75.50
43320;DHT22;28914;48.722;9.332;2023-01-09T14:25:22;11.80;75.30
43320;DHT22;28914;48.722;9.332;2023-01-09T14:31:03;11.80;75.70
43320;DHT22;28914;48.722;9.332;2023-01-09T14:36:22;11.80;76.20
43320;DHT22;28914;48.722;9.332;2023-01-09T14:41:47;11.80;76.00
43320;DHT22;28914;48.722;9.332;2023-01-09T14:58:24;11.80;75.50
43320;DHT22;28914;48.722;9.332;2023-01-09T15:03:50;11.70;75.10
43320;DHT22;28914;48.722;9.332;2023-01-09T15:14:45;11.30;75.80
43320;DHT22;28914;48.722;9.332;2023-01-09T15:20:16;11.10;76.50
43320;DHT22;28914;48.722;9.332;2023-01-09T15:25:37;10.90;77.30
43320;DHT22;28914;48.722;9.332;2023-01-09T15:31:05;10.80;77.70
43320;DHT22;28914;48.722;9.332;2023-01-09T15:36:28;10.70;77.60
43320;DHT22;28914;48.722;9.332;2023-01-09T15:41:48;10.70;78.20
43320;DHT22;28914;48.722;9.332;2023-01-09T15:47:26;10.60;78.60
43320;DHT22;28914;48.722;9.332;2023-01-09T15:52:48;10.60;78.10
43320;DHT22;28914;48.722;9.332;2023-01-09T15:58:28;10.60;77.90
43320;DHT22;28914;48.722;9.332;2023-01-09T16:09:29;10.60;77.90
43320;DHT22;28914;48.722;9.332;2023-01-09T16:14:54;10.60;77.70
43320;DHT22;28914;48.722;9.332;2023-01-09T16:20:21;10.50;77.20
43320;DHT22;28914;48.722;9.332;2023-01-09T16:25:42;10.50;77.50
43320;DHT22;28914;48.722;9.332;2023-01-09T16:31:06;10.50;76.90
43320;DHT22;28914;48.722;9.332;2023-01-09T16:36:35;10.50;77.10
43320;DHT22;28914;48.722;9.332;2023-01-09T16:41:56;10.50;76.60
43320;DHT22;28914;48.722;9.332;2023-01-09T16:47:34;10.40;76.10
43320;DHT22;28914;48.722;9.332;2023-01-09T16:52:55;10.20;76.30
43320;DHT22;28914;48.722;9.332;2023-01-09T16:58:17;10.20;76.70
43320;DHT22;28914;48.722;9.332;2023-01-09T17:03:38;10.10;77.00
43320;DHT22;28914;48.722;9.332;2023-01-09T17:08:58;10.10;77.10
43320;DHT22;28914;48.722;9.332;2023-01-09T17:14:17;10.10;77.20
43320;DHT22;28914;48.722;9.332;2023-01-09T17:19:37;10.00;77.40
43320;DHT22;28914;48.722;9.332;2023-01-09T17:24:56;10.00;77.70
43320;DHT22;28914;48.722;9.332;2023-01-09T17:30:34;10.00;77.80
43320;DHT22;28914;48.722;9.332;2023-01-09T17:35:54;10.00;77.70
43320;DHT22;28914;48.722;9.332;2023-01-09T17:41:13;9.90;77.70
43320;DHT22;28914;48.722;9.332;2023-01-09T17:46:35;9.90;78.00
43320;DHT22;28914;48.722;9.332;2023-01-09T17:51:54;9.80;77.60
43320;DHT22;28914;48.722;9.332;2023-01-09T17:57:14;9.80;77.70
43320;DHT22;28914;48.722;9.332;2023-01-09T18:02:36;9.80;78.00
43320;DHT22;28914;48.722;9.332;2023-01-09T18:07:56;9.70;78.00
43320;DHT22;28914;48.722;9.332;2023-01-09T18:13:15;9.80;78.20
43320;DHT22;28914;48.722;9.332;2023-01-09T18:18:35;9.80;78.20
43320;DHT22;28914;48.722;9.332;2023-01-09T18:23:55;9.80;78.30
43320;DHT22;28914;48.722;9.332;2023-01-09T18:29:15;9.80;78.40
43320;DHT22;28914;48.722;9.332;2023-01-09T18:34:34;9.80;78.50
43320;DHT22;28914;48.722;9.332;2023-01-09T18:39:53;9.80;78.30
43320;DHT22;28914;48.722;9.332;2023-01-09T18:45:13;9.80;78.10
43320;DHT22;28914;48.722;9.332;2023-01-09T18:50:32;9.80;78.20
43320;DHT22;28914;48.722;9.332;2023-01-09T18:55:52;9.80;78.40
43320;DHT22;28914;48.722;9.332;2023-01-09T19:01:11;9.80;79.40
43320;DHT22;28914;48.722;9.332;2023-01-09T19:06:32;9.70;78.80
43320;DHT22;28914;48.722;9.332;2023-01-09T19:11:51;9.70;78.90
43320;DHT22;28914;48.722;9.332;2023-01-09T19:17:10;9.70;79.30
43320;DHT22;28914;48.722;9.332;2023-01-09T19:22:29;9.70;79.50
43320;DHT22;28914;48.722;9.332;2023-01-09T19:27:49;9.60;79.60
43320;DHT22;28914;48.722;9.332;2023-01-09T19:33:09;9.60;79.70
43320;DHT22;28914;48.722;9.332;2023-01-09T19:38:29;9.60;80.00
43320;DHT22;28914;48.722;9.332;2023-01-09T19:43:48;9.60;80.20
43320;DHT22;28914;48.722;9.332;2023-01-09T19:49:07;9.60;80.30
43320;DHT22;28914;48.722;9.332;2023-01-09T19:54:27;9.60;80.60
43320;DHT22;28914;48.722;9.332;2023-01-09T19:59:47;9.60;80.60
43320;DHT22;28914;48.722;9.332;2023-01-09T20:05:08;9.60;80.80
43320;DHT22;28914;48.722;9.332;2023-01-09T20:10:27;9.60;81.00
43320;DHT22;28914;48.722;9.332;2023-01-09T20:15:46;9.60;81.10
43320;DHT22;28914;48.722;9.332;2023-01-09T20:21:05;9.60;81.00
43320;DHT22;28914;48.722;9.332;2023-01-09T20:26:25;9.50;81.00
43320;DHT22;28914;48.722;9.332;2023-01-09T20:31:45;9.50;81.10
43320;DHT22;28914;48.722;9.332;2023-01-09T20:37:04;9.40;81.20
43320;DHT22;28914;48.722;9.332;2023-01-09T20:42:23;9.40;81.10
43320;DHT22;28914;48.722;9.332;2023-01-09T20:47:42;9.40;81.20
43320;DHT22;28914;48.722;9.332;2023-01-09T20:53:05;9.40;81.40
43320;DHT22;28914;48.722;9.332;2023-01-09T20:58:24;9.40;81.30
43320;DHT22;28914;48.722;9.332;2023-01-09T21:03:43;9.40;81.40
43320;DHT22;28914;48.722;9.332;2023-01-09T21:09:03;9.40;81.60
43320;DHT22;28914;48.722;9.332;2023-01-09T21:14:23;9.40;81.80
43320;DHT22;28914;48.722;9.332;2023-01-09T21:19:41;9.40;81.90
43320;DHT22;28914;48.722;9.332;2023-01-09T21:25:01;9.40;82.10
43320;DHT22;28914;48.722;9.332;2023-01-09T21:30:21;9.40;82.10
43320;DHT22;28914;48.722;9.332;2023-01-09T21:35:41;9.40;82.40
43320;DHT22;28914;48.722;9.332;2023-01-09T21:41:00;9.30;82.30
43320;DHT22;28914;48.722;9.332;2023-01-09T21:46:39;9.30;82.60
43320;DHT22;28914;48.722;9.332;2023-01-09T21:52:12;9.30;82.70
43320;DHT22;28914;48.722;9.332;2023-01-09T21:57:31;9.30;83.00
43320;DHT22;28914;48.722;9.332;2023-01-09T22:02:50;9.20;83.10
43320;DHT22;28914;48.722;9.332;2023-01-09T22:08:10;9.20;83.20
43320;DHT22;28914;48.722;9.332;2023-01-09T22:13:29;9.20;83.40
43320;DHT22;28914;48.722;9.332;2023-01-09T22:18:48;9.20;83.50
43320;DHT22;28914;48.722;9.332;2023-01-09T22:24:11;9.30;83.60
43320;DHT22;28914;48.722;9.332;2023-01-09T22:29:31;9.20;83.70
43320;DHT22;28914;48.722;9.332;2023-01-09T22:34:50;9.20;83.70
43320;DHT22;28914;48.722;9.332;2023-01-09T22:40:10;9.30;83.80
43320;DHT22;28914;48.722;9.332;2023-01-09T22:45:29;9.30;84.00
43320;DHT22;28914;48.722;9.332;2023-01-09T22:50:49;9.30;84.00
43320;DHT22;28914;48.722;9.332;2023-01-09T22:56:11;9.30;84.10
43320;DHT22;28914;48.722;9.332;2023-01-09T23:01:31;9.30;84.20
43320;DHT22;28914;48.722;9.332;2023-01-09T23:06:50;9.30;84.20
43320;DHT22;28914;48.722;9.332;2023-01-09T23:12:09;9.30;84.20
43320;DHT22;28914;48.722;9.332;2023-01-09T23:17:28;9.30;84.30
43320;DHT22;28914;48.722;9.332;2023-01-09T23:22:47;9.30;84.30
43320;DHT22;28914;48.722;9.332;2023-01-09T23:28:06;9.30;84.40
43320;DHT22;28914;48.722;9.332;2023-01-09T23:33:26;9.30;84.50
43320;DHT22;28914;48.722;9.332;2023-01-09T23:38:45;9.30;84.60
43320;DHT22;28914;48.722;9.332;2023-01-09T23:44:04;9.30;84.60
43320;DHT22;28914;48.722;9.332;2023-01-09T23:49:23;9.30;84.80
43320;DHT22;28914;48.722;9.332;2023-01-09T23:54:42;9.30;84.60
